createdAt,value
2022-08-21T00:00:50.175Z,0.40
2022-08-21T00:14:50.147Z,0.40
2022-08-21T00:28:50.174Z,0.60
2022-08-21T00:42:53.540Z,0.60
2022-08-21T00:56:50.937Z,0.60
2022-08-21T01:10:51.120Z,0.50
2022-08-21T01:24:50.398Z,0.40
2022-08-21T01:38:50.398Z,0.40
2022-08-21T01:52:50.432Z,0.50
2022-08-21T02:06:50.381Z,0.50
2022-08-21T02:20:53.673Z,0.50
2022-08-21T02:34:50.452Z,0.40
2022-08-21T02:48:50.462Z,0.40
2022-08-21T03:02:50.498Z,0.40
2022-08-21T03:16:50.472Z,0.30
2022-08-21T03:30:50.445Z,0.30
2022-08-21T03:44:50.619Z,0.50
2022-08-21T03:58:50.554Z,0.40
2022-08-21T04:12:50.639Z,0.40
2022-08-21T04:27:50.650Z,0.30
2022-08-21T04:42:50.705Z,0.40
2022-08-21T04:57:50.714Z,0.30
2022-08-21T05:12:50.872Z,0.30
2022-08-21T05:27:52.103Z,0.40
2022-08-21T05:42:54.143Z,0.30
2022-08-21T05:57:50.993Z,0.50
2022-08-21T06:12:50.874Z,0.30
2022-08-21T06:27:50.929Z,0.40
2022-08-21T06:42:50.921Z,0.40
2022-08-21T06:57:52.402Z,0.20
2022-08-21T07:13:00.706Z,0.20
2022-08-21T07:27:50.957Z,0.30
2022-08-21T07:42:51.418Z,0.30
2022-08-21T07:57:51.430Z,0.30
2022-08-21T08:12:51.565Z,0.20
2022-08-21T08:28:51.636Z,0.30
2022-08-21T08:43:51.889Z,0.20
2022-08-21T08:58:51.668Z,0.20
2022-08-21T09:13:51.897Z,0.50
2022-08-21T09:28:51.774Z,0.40
2022-08-21T09:43:51.823Z,0.20
2022-08-21T09:58:51.802Z,0.30
2022-08-21T10:14:51.794Z,0.20
2022-08-21T10:30:51.768Z,0.30
2022-08-21T10:46:51.808Z,0.30
2022-08-21T11:01:51.831Z,0.30
2022-08-21T11:16:51.833Z,0.40
2022-08-21T11:32:51.895Z,0.30
2022-08-21T11:48:51.858Z,0.30
2022-08-21T12:03:51.872Z,0.40
2022-08-21T12:18:51.867Z,0.30
2022-08-21T12:33:51.874Z,0.30
2022-08-21T12:48:51.902Z,0.40
2022-08-21T13:04:00.289Z,0.90
2022-08-21T13:18:52.019Z,0.30
2022-08-21T13:33:52.030Z,0.30
2022-08-21T13:48:52.010Z,0.20
2022-08-21T14:03:52.057Z,0.20
2022-08-21T14:18:52.059Z,0.30
2022-08-21T14:33:52.101Z,0.30
2022-08-21T14:48:52.112Z,0.30
2022-08-21T15:03:52.152Z,0.30
2022-08-21T15:18:52.176Z,0.20
2022-08-21T15:33:52.188Z,0.20
2022-08-21T15:48:54.398Z,0.30
2022-08-21T16:03:52.325Z,0.20
2022-08-21T16:18:52.313Z,0.30
2022-08-21T16:33:52.388Z,0.20
2022-08-21T16:48:52.304Z,0.30
2022-08-21T17:03:52.330Z,0.30
2022-08-21T17:18:54.429Z,0.20
2022-08-21T17:33:52.688Z,0.40
2022-08-21T17:48:52.686Z,0.20
2022-08-21T18:03:52.708Z,0.40
2022-08-21T18:18:52.794Z,0.20
2022-08-21T18:33:55.986Z,0.20
2022-08-21T18:48:52.854Z,0.30
2022-08-21T19:02:52.891Z,0.20
2022-08-21T19:16:52.869Z,0.20
2022-08-21T19:32:52.941Z,2.10
2022-08-21T19:46:52.992Z,8.70
2022-08-21T20:00:53.036Z,6.90
2022-08-21T20:14:52.997Z,6.30
2022-08-21T20:28:53.001Z,4.30
2022-08-21T20:42:53.190Z,4.10
2022-08-21T20:56:53.032Z,7.10
2022-08-21T21:10:53.155Z,5.90
2022-08-21T21:24:53.356Z,2.90
2022-08-21T21:38:53.052Z,2.10
2022-08-21T21:52:53.236Z,1.80
2022-08-21T22:06:53.036Z,2.00
2022-08-21T22:20:53.038Z,3.60
2022-08-21T22:34:54.393Z,4.60
2022-08-21T22:48:53.041Z,3.90
2022-08-21T23:02:53.170Z,3.10
2022-08-21T23:16:53.037Z,2.20
2022-08-21T23:30:53.057Z,1.40
2022-08-21T23:44:53.047Z,2.00
2022-08-21T23:58:53.038Z,2.00
